Time;durP1;ratioP1;P1;durP2;ratioP2;P2;SDS_P1;SDS_P2;PMS_P1;PMS_P2;Temp;Humidity;BMP_temperature;BMP_pressure;BME280_temperature;BME280_humidity;BME280_pressure;Samples;Min_cycle;Max_cycle;Signal;HPM_P1;HPM_P2
2022/02/16 00:00:22;;;;;;;3.35;1.60;;;;;;;3.10;75.25;96228.09;2071972;28;20736;-64
2022/02/16 00:01:25;;;;;;;2.10;0.82;;;;;;;3.11;75.07;96238.34;2072119;28;20198;-64
2022/02/16 00:02:27;;;;;;;2.58;0.93;;;;;;;3.14;75.03;96229.66;2072200;28;20680;-64
2022/02/16 00:03:29;;;;;;;5.50;1.10;;;;;;;3.10;75.16;96226.34;2072341;28;20277;-64
2022/02/16 00:04:30;;;;;;;1.88;0.93;;;;;;;3.13;75.29;96233.13;2072051;28;20583;-64
2022/02/16 00:05:36;;;;;;;4.82;1.20;;;;;;;2.99;75.31;96204.44;2071515;28;20673;-65
2022/02/16 00:06:38;;;;;;;4.53;1.08;;;;;;;3.00;75.26;96212.16;2071176;28;20201;-64
2022/02/16 00:07:40;;;;;;;1.60;0.80;;;;;;;3.12;75.00;96210.75;2072235;28;20738;-64
2022/02/16 00:08:42;;;;;;;2.78;1.00;;;;;;;3.16;74.96;96243.34;2071506;28;20190;-64
2022/02/16 00:09:43;;;;;;;1.27;0.88;;;;;;;3.10;75.15;96215.16;2071732;28;20228;-65
2022/02/16 00:10:45;;;;;;;1.15;0.70;;;;;;;3.10;75.38;96213.41;2072264;28;20225;-65
2022/02/16 00:11:46;;;;;;;2.95;0.80;;;;;;;2.83;75.14;96168.91;2071148;28;20209;-65
2022/02/16 00:12:48;;;;;;;4.65;0.90;;;;;;;3.16;75.02;96235.59;2071301;28;20205;-64
2022/02/16 00:13:49;;;;;;;3.72;1.00;;;;;;;3.27;74.78;96227.31;2072072;28;20206;-65
2022/02/16 00:14:51;;;;;;;5.95;1.00;;;;;;;3.10;74.77;96202.22;2071809;28;20232;-65
2022/02/16 00:15:52;;;;;;;3.72;1.15;;;;;;;3.21;74.92;96220.66;2071687;28;20572;-64
2022/02/16 00:16:54;;;;;;;7.55;1.38;;;;;;;3.08;75.00;96202.28;2070785;28;20205;-64
2022/02/16 00:17:56;;;;;;;1.70;0.90;;;;;;;3.27;74.76;96222.97;2070733;28;20205;-64
2022/02/16 00:18:57;;;;;;;4.85;1.20;;;;;;;3.29;74.71;96231.53;2071595;28;20194;-64
2022/02/16 00:19:59;;;;;;;1.63;0.80;;;;;;;3.14;74.68;96198.59;2072343;28;20198;-65
2022/02/16 00:21:03;;;;;;;3.90;0.85;;;;;;;3.34;74.59;96226.97;2071293;28;20245;-65
2022/02/16 00:22:05;;;;;;;4.28;1.10;;;;;;;3.29;74.64;96222.91;2064101;28;20203;-65
2022/02/16 00:23:07;;;;;;;10.70;1.00;;;;;;;3.27;74.49;96222.16;2071660;28;20209;-65
2022/02/16 00:24:08;;;;;;;1.48;0.85;;;;;;;3.14;74.89;96203.75;2071042;28;20212;-64
2022/02/16 00:25:10;;;;;;;2.28;0.73;;;;;;;3.23;75.05;96208.50;2072147;28;20198;-65
2022/02/16 00:26:12;;;;;;;5.50;1.30;;;;;;;3.35;74.90;96223.50;2071560;28;20193;-65
2022/02/16 00:27:14;;;;;;;4.10;1.20;;;;;;;3.23;74.57;96194.72;2070832;28;20209;-64
2022/02/16 00:28:17;;;;;;;3.35;0.90;;;;;;;3.27;74.79;96201.44;2071954;28;20205;-64
2022/02/16 00:29:19;;;;;;;2.45;1.02;;;;;;;3.41;74.65;96216.34;2070623;28;20279;-64
2022/02/16 00:30:21;;;;;;;7.40;1.60;;;;;;;3.36;74.57;96214.78;2072165;28;20205;-64
2022/02/16 00:31:22;;;;;;;4.30;1.17;;;;;;;3.46;74.50;96214.38;2072162;28;20205;-64
2022/02/16 00:32:23;;;;;;;2.65;1.05;;;;;;;3.44;74.71;96213.63;2072162;28;20194;-64
2022/02/16 00:33:25;;;;;;;3.65;0.90;;;;;;;3.36;74.79;96193.25;2072341;28;20198;-64
2022/02/16 00:34:26;;;;;;;3.05;0.90;;;;;;;3.47;74.77;96222.09;2070629;28;20225;-64
2022/02/16 00:35:28;;;;;;;1.65;0.80;;;;;;;3.39;75.08;96216.41;2072110;28;20198;-64
2022/02/16 00:36:29;;;;;;;4.03;0.90;;;;;;;3.34;75.20;96201.09;2071669;28;20197;-64
2022/02/16 00:37:32;;;;;;;3.83;0.95;;;;;;;3.49;74.99;96224.56;2071002;28;20218;-64
2022/02/16 00:38:33;;;;;;;5.85;0.80;;;;;;;3.49;75.19;96219.41;2071740;28;20205;-65
2022/02/16 00:39:35;;;;;;;3.38;0.70;;;;;;;3.46;75.23;96222.97;2070933;28;20223;-64
2022/02/16 00:40:36;;;;;;;2.05;0.95;;;;;;;3.43;75.46;96210.19;2070006;28;20205;-64
2022/02/16 00:41:38;;;;;;;3.13;0.80;;;;;;;3.47;75.47;96216.03;2071827;28;20194;-64
2022/02/16 00:42:39;;;;;;;3.25;0.80;;;;;;;3.49;75.60;96222.84;2071765;28;20208;-64
2022/02/16 00:43:41;;;;;;;3.00;0.85;;;;;;;3.39;75.63;96194.84;2072761;28;20201;-67
2022/02/16 00:44:43;;;;;;;3.25;1.10;;;;;;;3.39;75.65;96211.22;2071727;28;20226;-66
2022/02/16 00:45:44;;;;;;;3.85;0.70;;;;;;;3.45;75.84;96205.78;2063771;28;20233;-64
2022/02/16 00:46:45;;;;;;;3.47;0.80;;;;;;;3.49;75.83;96206.44;2070931;28;20637;-64
2022/02/16 00:47:47;;;;;;;1.65;0.88;;;;;;;3.44;76.34;96209.25;2071612;28;20588;-65
2022/02/16 00:48:49;;;;;;;13.65;1.25;;;;;;;3.43;76.36;96204.16;2072064;28;20201;-64
2022/02/16 00:49:50;;;;;;;0.90;0.60;;;;;;;3.45;76.48;96203.19;2069170;28;20233;-65
2022/02/16 00:50:52;;;;;;;3.75;0.90;;;;;;;3.48;76.14;96199.59;2070018;28;20204;-64
2022/02/16 00:51:53;;;;;;;6.97;1.20;;;;;;;3.51;76.29;96210.66;2070491;28;20203;-65
2022/02/16 00:52:55;;;;;;;6.32;0.85;;;;;;;3.57;76.14;96199.19;2070971;28;20592;-64
2022/02/16 00:53:56;;;;;;;5.03;0.88;;;;;;;3.52;76.29;96189.03;2071242;28;20206;-64
2022/02/16 00:54:57;;;;;;;3.33;0.80;;;;;;;3.52;76.38;96198.56;2071691;28;20194;-64
2022/02/16 00:56:01;;;;;;;3.42;0.95;;;;;;;3.58;76.27;96189.66;2069373;28;20206;-64
2022/02/16 00:57:04;;;;;;;5.05;0.70;;;;;;;3.50;76.61;96180.50;2069413;28;20198;-64
2022/02/16 00:58:05;;;;;;;5.55;0.80;;;;;;;3.48;76.94;96189.25;2069252;28;20216;-64
2022/02/16 00:59:09;;;;;;;3.30;0.73;;;;;;;3.43;77.25;96191.22;2070130;28;20688;-64
2022/02/16 01:00:12;;;;;;;3.00;0.77;;;;;;;3.40;77.56;96181.84;2070273;28;20206;-65
2022/02/16 01:01:14;;;;;;;2.38;0.90;;;;;;;3.39;77.58;96169.78;2071038;28;20279;-65
2022/02/16 01:02:15;;;;;;;1.60;0.80;;;;;;;3.41;77.64;96177.50;2070501;28;20198;-65
2022/02/16 01:03:17;;;;;;;1.98;0.90;;;;;;;3.32;77.26;96158.91;2071871;28;20682;-65
2022/02/16 01:04:19;;;;;;;6.30;1.02;;;;;;;3.31;77.35;96157.25;2071079;28;20237;-65
2022/02/16 01:05:20;;;;;;;4.45;1.00;;;;;;;3.47;77.34;96174.63;2071885;28;20213;-65
2022/02/16 01:06:21;;;;;;;3.75;1.08;;;;;;;3.41;77.30;96185.25;2070640;28;20224;-65
2022/02/16 01:07:23;;;;;;;3.78;0.90;;;;;;;3.44;77.43;96164.41;2071616;28;20198;-65
2022/02/16 01:08:25;;;;;;;2.00;0.85;;;;;;;3.36;77.67;96173.38;2071817;28;20198;-64
2022/02/16 01:09:27;;;;;;;2.50;0.80;;;;;;;3.39;77.78;96166.38;2071096;28;20265;-65
2022/02/16 01:10:29;;;;;;;2.65;0.90;;;;;;;3.42;77.66;96179.19;2070524;28;20193;-65
2022/02/16 01:11:30;;;;;;;6.20;0.88;;;;;;;3.40;77.94;96168.06;2071525;28;20201;-65
2022/02/16 01:12:32;;;;;;;2.72;0.80;;;;;;;3.33;78.04;96168.38;2071808;28;20495;-65
2022/02/16 01:13:34;;;;;;;6.43;1.00;;;;;;;3.32;78.09;96169.25;2071803;28;20655;-65
2022/02/16 01:14:35;;;;;;;2.45;0.70;;;;;;;3.32;78.36;96161.50;2071579;28;20230;-65
2022/02/16 01:15:37;;;;;;;2.58;0.80;;;;;;;3.22;78.33;96159.41;2070793;28;20597;-65
2022/02/16 01:16:38;;;;;;;1.67;0.70;;;;;;;3.29;78.46;96165.97;2071264;28;20202;-66
2022/02/16 01:17:40;;;;;;;5.10;0.80;;;;;;;3.19;78.51;96155.22;2069267;28;20390;-65
2022/02/16 01:18:42;;;;;;;3.33;0.90;;;;;;;3.25;78.68;96162.69;2068623;28;20198;-65
2022/02/16 01:19:43;;;;;;;2.20;0.85;;;;;;;3.26;78.75;96166.97;2068797;28;20226;-65
2022/02/16 01:20:45;;;;;;;6.10;0.80;;;;;;;3.36;78.55;96182.91;2070392;28;20251;-65
2022/02/16 01:21:47;;;;;;;4.90;1.08;;;;;;;3.31;78.74;96170.19;2071332;28;20194;-65
2022/02/16 01:22:48;;;;;;;5.93;1.02;;;;;;;3.27;78.66;96181.56;2071785;28;20206;-65
2022/02/16 01:23:50;;;;;;;4.70;1.10;;;;;;;3.17;78.92;96151.84;2071032;28;20510;-65
2022/02/16 01:24:51;;;;;;;3.45;0.90;;;;;;;3.28;78.86;96165.13;2070600;28;20229;-65
2022/02/16 01:25:53;;;;;;;1.25;0.70;;;;;;;3.23;79.22;96164.50;2072190;28;20225;-64
2022/02/16 01:26:55;;;;;;;2.28;0.80;;;;;;;3.21;79.42;96162.91;2074804;28;20495;-65
2022/02/16 01:27:56;;;;;;;4.68;0.90;;;;;;;3.21;79.43;96160.31;2071695;28;20198;-65
2022/02/16 01:28:58;;;;;;;3.03;0.65;;;;;;;3.20;79.42;96167.25;2071197;28;20410;-64
2022/02/16 01:29:59;;;;;;;2.10;0.75;;;;;;;3.14;79.26;96137.31;2071509;28;20206;-64
2022/02/16 01:31:01;;;;;;;3.92;1.05;;;;;;;3.16;79.62;96152.78;2071346;28;20205;-65
2022/02/16 01:32:03;;;;;;;2.15;0.95;;;;;;;3.14;79.80;96157.19;2068051;28;20207;-64
2022/02/16 01:33:05;;;;;;;1.27;0.70;;;;;;;3.19;79.77;96156.97;2069460;28;20257;-64
2022/02/16 01:34:06;;;;;;;1.40;0.90;;;;;;;3.11;79.75;96147.78;2069552;28;20588;-65
2022/02/16 01:35:08;;;;;;;4.38;0.98;;;;;;;3.06;80.40;96148.91;2071544;28;20206;-65
2022/02/16 01:36:10;;;;;;;2.78;1.20;;;;;;;3.06;80.15;96147.19;2071444;28;20201;-64
2022/02/16 01:37:11;;;;;;;9.65;1.23;;;;;;;3.09;80.35;96159.13;2071763;28;20571;-65
2022/02/16 01:38:13;;;;;;;1.08;0.70;;;;;;;3.10;80.27;96155.66;2071461;28;20205;-65
2022/02/16 01:39:14;;;;;;;7.35;0.80;;;;;;;3.00;80.65;96155.22;2071202;28;20222;-64
2022/02/16 01:40:16;;;;;;;2.30;1.13;;;;;;;3.04;80.67;96154.19;2071521;28;20194;-65
2022/02/16 01:41:17;;;;;;;1.80;0.93;;;;;;;3.03;80.60;96160.25;2070736;28;20217;-65
2022/02/16 01:42:20;;;;;;;16.85;1.63;;;;;;;3.03;80.72;96160.25;2069558;28;20201;-65
2022/02/16 01:43:22;;;;;;;10.27;0.80;;;;;;;3.02;80.67;96155.13;2068317;28;20214;-64
2022/02/16 01:44:24;;;;;;;3.55;0.93;;;;;;;3.03;80.80;96162.00;2070024;28;20218;-65
2022/02/16 01:45:27;;;;;;;1.80;0.70;;;;;;;3.02;81.06;96160.31;2071635;28;20633;-65
2022/02/16 01:46:29;;;;;;;4.38;0.90;;;;;;;2.95;80.95;96147.66;2069662;28;20198;-64
2022/02/16 01:47:30;;;;;;;1.05;0.90;;;;;;;3.02;81.12;96149.97;2071174;28;20194;-65
2022/02/16 01:48:32;;;;;;;1.55;0.77;;;;;;;3.00;81.21;96144.03;2070426;28;20202;-64
2022/02/16 01:49:35;;;;;;;1.20;0.80;;;;;;;2.99;80.96;96150.13;2068848;28;20224;-64
2022/02/16 01:50:38;;;;;;;1.55;0.80;;;;;;;3.01;81.21;96141.38;2070674;28;20718;-64
2022/02/16 01:51:40;;;;;;;5.80;1.02;;;;;;;3.01;81.09;96135.38;2071509;28;20205;-65
2022/02/16 01:52:41;;;;;;;1.90;0.80;;;;;;;2.98;81.23;96136.34;2071691;28;20205;-64
2022/02/16 01:53:43;;;;;;;4.03;0.70;;;;;;;2.99;81.46;96140.59;2071475;28;20224;-65
2022/02/16 01:54:45;;;;;;;5.85;1.17;;;;;;;2.99;81.34;96132.00;2071003;28;20233;-65
2022/02/16 01:55:47;;;;;;;1.70;0.70;;;;;;;2.96;81.52;96138.19;2070128;28;20563;-64
2022/02/16 01:56:49;;;;;;;1.67;0.90;;;;;;;2.83;81.78;96109.44;2071494;28;20208;-64
2022/02/16 01:57:51;;;;;;;1.85;0.80;;;;;;;2.98;81.59;96120.84;2070759;28;20224;-65
2022/02/16 01:58:53;;;;;;;3.80;1.02;;;;;;;2.95;81.71;96126.97;2070062;28;20399;-65
2022/02/16 01:59:54;;;;;;;3.95;1.00;;;;;;;2.90;81.84;96107.38;2070967;28;20205;-65
2022/02/16 02:00:56;;;;;;;4.03;0.70;;;;;;;2.89;82.11;96116.06;2070045;28;20201;-64
2022/02/16 02:01:57;;;;;;;5.05;1.67;;;;;;;2.89;82.10;96109.16;2070832;28;20316;-65
2022/02/16 02:02:59;;;;;;;7.43;1.05;;;;;;;2.86;82.06;96109.31;2070597;28;20494;-64
2022/02/16 02:04:00;;;;;;;2.45;0.80;;;;;;;2.90;82.33;96112.56;2068980;28;20199;-64
2022/02/16 02:05:04;;;;;;;2.25;0.90;;;;;;;2.89;82.19;96110.91;2069288;28;20198;-64
2022/02/16 02:06:06;;;;;;;3.72;0.95;;;;;;;2.88;82.02;96107.50;2069777;28;20197;-64
2022/02/16 02:07:07;;;;;;;2.03;0.75;;;;;;;2.91;82.12;96106.50;2070370;28;20499;-65
2022/02/16 02:08:11;;;;;;;2.20;1.02;;;;;;;2.99;82.00;96106.97;2070950;28;20667;-65
2022/02/16 02:09:13;;;;;;;1.98;0.90;;;;;;;2.89;82.36;96109.16;2071122;28;20202;-64
2022/02/16 02:10:15;;;;;;;5.43;0.90;;;;;;;2.91;82.21;96104.75;2070602;28;20226;-65
2022/02/16 02:11:17;;;;;;;1.70;0.80;;;;;;;2.89;82.45;96106.56;2070839;28;20672;-65
2022/02/16 02:12:18;;;;;;;2.08;0.70;;;;;;;2.89;82.62;96114.31;2068448;28;20286;-64
2022/02/16 02:13:20;;;;;;;1.60;0.75;;;;;;;2.88;82.53;96102.31;2069410;28;20202;-64
2022/02/16 02:14:22;;;;;;;1.83;0.70;;;;;;;2.88;82.38;96093.69;2070081;28;20228;-65
2022/02/16 02:15:25;;;;;;;6.93;1.27;;;;;;;2.90;82.62;96097.91;2070742;28;20204;-65
2022/02/16 02:16:27;;;;;;;3.40;0.70;;;;;;;2.90;82.63;96092.72;2067214;28;20194;-64
2022/02/16 02:17:29;;;;;;;4.18;0.80;;;;;;;2.58;82.82;96045.91;2068081;28;20228;-64
2022/02/16 02:18:30;;;;;;;1.38;0.80;;;;;;;2.87;82.88;96084.28;2068679;28;20195;-64
2022/02/16 02:19:32;;;;;;;3.85;1.10;;;;;;;2.86;82.88;96085.16;2068930;28;20233;-65
2022/02/16 02:20:33;;;;;;;4.90;0.95;;;;;;;2.91;82.72;96075.47;2072159;28;20232;-64
2022/02/16 02:21:36;;;;;;;1.90;0.70;;;;;;;2.87;82.65;96079.94;2071582;28;20453;-64
2022/02/16 02:22:37;;;;;;;1.98;0.85;;;;;;;2.88;82.95;96071.28;2070844;28;20197;-65
2022/02/16 02:23:39;;;;;;;1.60;0.70;;;;;;;2.88;82.80;96073.84;2071377;28;20356;-64
2022/02/16 02:24:40;;;;;;;2.40;0.80;;;;;;;2.87;83.04;96077.34;2067160;28;20232;-65
2022/02/16 02:25:51;;;;;;;1.40;0.70;;;;;;;2.89;83.11;96065.19;2069387;28;20470;-65
2022/02/16 02:26:53;;;;;;;2.83;0.80;;;;;;;2.87;82.99;96076.50;2070594;28;20197;-65
2022/02/16 02:27:54;;;;;;;4.93;0.95;;;;;;;2.85;83.09;96065.41;2071381;28;20199;-64
2022/02/16 02:28:56;;;;;;;4.32;0.75;;;;;;;2.88;83.12;96068.69;2070619;28;20193;-64
2022/02/16 02:29:57;;;;;;;2.05;0.70;;;;;;;2.89;83.09;96080.69;2071395;28;20198;-64
2022/02/16 02:31:00;;;;;;;1.00;0.70;;;;;;;2.88;83.20;96054.91;2071353;28;20210;-66
2022/02/16 02:32:03;;;;;;;2.90;0.70;;;;;;;2.75;83.17;96052.88;2071551;28;20284;-64
2022/02/16 02:33:05;;;;;;;3.90;0.68;;;;;;;2.81;83.35;96051.78;2068773;28;20216;-65
2022/02/16 02:34:06;;;;;;;4.55;1.00;;;;;;;2.86;83.37;96067.06;2068568;28;20208;-64
2022/02/16 02:35:10;;;;;;;2.58;0.63;;;;;;;2.86;83.49;96067.06;2069904;28;20201;-64
2022/02/16 02:36:11;;;;;;;1.00;0.70;;;;;;;2.86;83.57;96062.75;2070454;28;20193;-64
2022/02/16 02:37:13;;;;;;;3.67;1.05;;;;;;;2.85;83.46;96053.28;2070538;28;20230;-64
2022/02/16 02:38:14;;;;;;;1.17;0.65;;;;;;;2.82;83.57;96057.78;2071084;28;20198;-64
2022/02/16 02:39:16;;;;;;;1.20;0.77;;;;;;;2.88;83.26;96049.72;2070836;28;20221;-65
2022/02/16 02:40:17;;;;;;;1.60;0.75;;;;;;;2.84;83.60;96067.13;2069857;28;20201;-64
2022/02/16 02:41:19;;;;;;;0.93;0.60;;;;;;;2.88;83.56;96057.47;2070111;28;20193;-65
2022/02/16 02:42:21;;;;;;;3.35;0.70;;;;;;;2.81;83.81;96048.34;2062844;28;20199;-64
2022/02/16 02:43:25;;;;;;;1.17;0.73;;;;;;;2.83;83.92;96038.78;2070757;28;20657;-64
2022/02/16 02:44:26;;;;;;;1.23;0.60;;;;;;;2.88;83.62;96057.47;2068878;28;20226;-64
2022/02/16 02:45:28;;;;;;;2.08;0.80;;;;;;;2.86;83.71;96039.47;2067049;28;20686;-64
2022/02/16 02:46:29;;;;;;;1.40;0.60;;;;;;;2.94;83.45;96052.00;2068284;28;20317;-65
2022/02/16 02:47:32;;;;;;;0.73;0.50;;;;;;;2.90;83.74;96032.38;2068906;28;20781;-65
2022/02/16 02:48:34;;;;;;;1.75;0.80;;;;;;;2.86;83.62;96023.09;2070356;28;20198;-64
2022/02/16 02:49:35;;;;;;;1.35;0.60;;;;;;;2.92;83.57;96044.34;2070543;28;20622;-65
2022/02/16 02:50:37;;;;;;;2.65;0.70;;;;;;;2.75;83.87;96000.34;2072204;28;20209;-65
2022/02/16 02:51:38;;;;;;;0.95;0.63;;;;;;;2.85;83.88;96021.44;2074853;28;20197;-65
2022/02/16 02:52:40;;;;;;;0.70;0.57;;;;;;;2.87;83.86;96035.97;2071133;28;20656;-65
2022/02/16 02:53:42;;;;;;;0.75;0.60;;;;;;;2.89;83.94;96031.56;2071331;28;20560;-65
2022/02/16 02:54:44;;;;;;;1.63;0.68;;;;;;;2.81;84.09;96015.56;2071077;28;20584;-65
2022/02/16 02:55:46;;;;;;;0.90;0.50;;;;;;;2.81;84.01;96010.38;2071237;28;20547;-66
2022/02/16 02:56:47;;;;;;;1.52;0.70;;;;;;;2.80;83.83;96003.53;2071479;28;20821;-65
2022/02/16 02:57:49;;;;;;;0.90;0.52;;;;;;;2.84;83.96;96005.06;2071290;28;20440;-65
2022/02/16 02:58:50;;;;;;;0.85;0.60;;;;;;;2.82;84.23;96012.03;2068299;28;20202;-65
2022/02/16 02:59:52;;;;;;;2.28;0.50;;;;;;;2.85;84.08;96032.59;2067475;28;20544;-66
2022/02/16 03:00:54;;;;;;;1.73;0.60;;;;;;;2.84;84.20;96015.41;2070446;28;20190;-65
2022/02/16 03:01:55;;;;;;;2.22;0.75;;;;;;;2.83;84.31;95992.22;2070709;28;20292;-65
2022/02/16 03:02:57;;;;;;;1.60;0.55;;;;;;;2.86;84.16;96003.25;2062508;28;20587;-65
2022/02/16 03:03:58;;;;;;;1.40;0.60;;;;;;;2.82;84.26;95988.78;2068770;28;20602;-66
2022/02/16 03:05:01;;;;;;;0.90;0.50;;;;;;;2.83;84.28;95992.22;2074442;28;20201;-65
2022/02/16 03:06:09;;;;;;;0.70;0.50;;;;;;;2.79;84.29;95991.53;2073027;28;20208;-65
2022/02/16 03:07:11;;;;;;;1.23;0.63;;;;;;;2.79;84.33;95988.09;2070295;28;20252;-65
2022/02/16 03:08:15;;;;;;;1.45;0.60;;;;;;;2.83;84.25;95990.47;2070777;28;20564;-65
2022/02/16 03:09:17;;;;;;;0.88;0.68;;;;;;;2.83;84.47;95998.22;2070248;28;20625;-65
2022/02/16 03:10:18;;;;;;;0.80;0.50;;;;;;;2.83;84.49;95990.47;2079634;28;20676;-66
2022/02/16 03:11:20;;;;;;;1.00;0.50;;;;;;;2.83;84.29;95994.81;2080113;28;20197;-66
2022/02/16 03:12:22;;;;;;;0.90;0.40;;;;;;;2.82;84.42;95987.94;2071425;28;20641;-65
2022/02/16 03:13:25;;;;;;;3.95;0.70;;;;;;;2.83;84.65;95981.88;2072045;28;20220;-65
2022/02/16 03:14:28;;;;;;;0.90;0.60;;;;;;;2.91;84.18;95988.34;2072195;28;20225;-65
2022/02/16 03:15:30;;;;;;;1.17;0.50;;;;;;;2.82;84.55;95975.00;2072860;28;20653;-65
2022/02/16 03:16:31;;;;;;;0.60;0.50;;;;;;;2.83;84.47;95982.69;2073782;28;20691;-66
2022/02/16 03:17:33;;;;;;;3.47;0.70;;;;;;;2.87;84.41;95981.63;2072142;28;20198;-66
2022/02/16 03:18:34;;;;;;;0.82;0.55;;;;;;;2.81;84.62;95989.69;2072023;28;20194;-65
2022/02/16 03:19:36;;;;;;;2.97;0.70;;;;;;;2.89;84.56;95997.09;2071780;28;20234;-65
2022/02/16 03:20:38;;;;;;;0.70;0.50;;;;;;;2.92;84.19;95987.44;2072562;28;20414;-65
2022/02/16 03:21:39;;;;;;;1.08;0.50;;;;;;;2.88;84.31;95980.75;2072480;28;20198;-65
2022/02/16 03:22:41;;;;;;;1.88;0.60;;;;;;;2.71;84.27;95952.25;2072478;28;20204;-65
2022/02/16 03:23:43;;;;;;;1.50;0.68;;;;;;;2.83;84.08;95972.34;2072531;28;20202;-65
2022/02/16 03:24:46;;;;;;;1.67;0.50;;;;;;;2.89;84.47;95981.56;2072220;28;20236;-65
2022/02/16 03:25:47;;;;;;;0.80;0.70;;;;;;;2.88;83.88;95993.69;2070744;28;20212;-65
2022/02/16 03:26:49;;;;;;;0.80;0.60;;;;;;;2.87;84.64;95988.56;2071705;28;20781;-66
2022/02/16 03:27:50;;;;;;;1.05;0.50;;;;;;;2.88;84.56;95983.34;2072602;28;20199;-65
2022/02/16 03:28:52;;;;;;;0.70;0.50;;;;;;;2.86;84.62;95984.28;2071229;28;20207;-65
2022/02/16 03:29:54;;;;;;;1.17;0.57;;;;;;;2.97;84.46;95974.28;2071292;28;20473;-65
2022/02/16 03:30:56;;;;;;;3.30;0.60;;;;;;;2.90;84.37;95980.66;2072355;28;20213;-66
2022/02/16 03:32:04;;;;;;;0.60;0.40;;;;;;;2.89;84.47;95986.75;2069389;28;20739;-65
2022/02/16 03:33:06;;;;;;;0.93;0.50;;;;;;;2.91;84.34;95980.56;2070693;28;20201;-65
2022/02/16 03:34:08;;;;;;;0.70;0.50;;;;;;;2.91;84.42;95975.41;2071369;28;20252;-66
2022/02/16 03:35:09;;;;;;;4.85;0.50;;;;;;;2.90;84.46;95983.22;2072009;28;20198;-65
2022/02/16 03:36:13;;;;;;;4.20;0.60;;;;;;;2.88;84.42;95972.97;2072171;28;20202;-65
2022/02/16 03:37:15;;;;;;;1.75;0.70;;;;;;;2.89;84.48;95966.88;2072580;28;20202;-66
2022/02/16 03:38:16;;;;;;;1.05;0.50;;;;;;;2.91;84.46;95972.81;2068971;28;20213;-65
2022/02/16 03:39:18;;;;;;;0.90;0.50;;;;;;;2.87;84.59;95971.28;2069435;28;20225;-65
2022/02/16 03:40:19;;;;;;;0.80;0.50;;;;;;;2.94;84.44;95964.94;2071061;28;20537;-65
2022/02/16 03:41:21;;;;;;;0.70;0.50;;;;;;;2.96;84.50;95965.69;2071891;28;20194;-66
2022/02/16 03:42:22;;;;;;;2.15;0.50;;;;;;;3.00;84.16;95968.09;2071493;28;20209;-65
2022/02/16 03:43:24;;;;;;;0.95;0.77;;;;;;;2.95;84.54;95963.16;2067428;28;20217;-66
2022/02/16 03:44:26;;;;;;;1.38;0.50;;;;;;;2.95;84.78;95963.16;2072162;28;20223;-65
2022/02/16 03:45:27;;;;;;;0.85;0.50;;;;;;;2.70;84.59;95935.88;2070591;28;20198;-66
2022/02/16 03:46:29;;;;;;;1.23;0.50;;;;;;;2.97;84.53;95969.09;2072331;28;20204;-65
2022/02/16 03:47:31;;;;;;;1.08;0.57;;;;;;;2.96;84.50;95965.69;2072337;28;20669;-65
2022/02/16 03:48:33;;;;;;;0.63;0.47;;;;;;;2.93;84.59;95965.81;2069933;28;20208;-65
2022/02/16 03:49:34;;;;;;;0.70;0.50;;;;;;;3.03;84.50;95962.78;2072083;28;20225;-65
2022/02/16 03:50:36;;;;;;;0.70;0.50;;;;;;;2.99;84.51;95954.34;2072412;28;20206;-66
2022/02/16 03:51:37;;;;;;;0.80;0.50;;;;;;;3.06;84.33;95972.97;2072181;28;20217;-66
2022/02/16 03:52:39;;;;;;;0.75;0.50;;;;;;;3.03;84.34;95973.97;2072429;28;20198;-66
2022/02/16 03:53:41;;;;;;;1.33;0.50;;;;;;;2.96;84.41;95957.94;2072104;28;20248;-65
2022/02/16 03:54:42;;;;;;;0.75;0.50;;;;;;;2.94;84.55;95957.16;2071931;28;20234;-66
2022/02/16 03:55:44;;;;;;;1.70;0.60;;;;;;;3.02;84.59;95967.13;2071764;28;20202;-65
2022/02/16 03:56:45;;;;;;;2.45;0.50;;;;;;;3.05;84.35;95953.22;2072050;28;20207;-66
2022/02/16 03:57:47;;;;;;;0.70;0.50;;;;;;;3.06;84.31;95960.03;2072106;28;20190;-66
2022/02/16 03:58:48;;;;;;;0.68;0.50;;;;;;;3.02;84.63;95945.59;2071886;28;20209;-65
2022/02/16 03:59:50;;;;;;;0.80;0.60;;;;;;;2.77;84.45;95905.41;2071831;28;20736;-65
2022/02/16 04:00:51;;;;;;;0.70;0.50;;;;;;;3.06;84.49;95947.97;2071011;28;20203;-65
2022/02/16 04:01:53;;;;;;;1.85;0.57;;;;;;;3.08;84.31;95951.31;2072405;28;20207;-65
2022/02/16 04:02:54;;;;;;;5.35;0.60;;;;;;;3.08;84.40;95947.91;2072233;28;20216;-65
2022/02/16 04:03:56;;;;;;;1.10;0.50;;;;;;;3.10;84.50;95951.25;2071934;28;20205;-65
2022/02/16 04:04:57;;;;;;;2.80;0.55;;;;;;;3.06;84.28;95947.09;2071735;28;20213;-65
2022/02/16 04:05:59;;;;;;;1.75;0.57;;;;;;;3.05;84.56;95938.50;2072151;28;20202;-65
2022/02/16 04:07:00;;;;;;;1.25;0.60;;;;;;;3.07;84.56;95946.22;2072356;28;20204;-65
2022/02/16 04:08:02;;;;;;;1.00;0.60;;;;;;;3.05;84.70;95945.44;2071712;28;20209;-65
2022/02/16 04:09:03;;;;;;;1.23;0.50;;;;;;;3.07;84.69;95936.69;2071548;28;20198;-65
2022/02/16 04:10:06;;;;;;;0.70;0.50;;;;;;;3.08;84.37;95927.19;2069741;28;20195;-65
2022/02/16 04:11:08;;;;;;;1.13;0.60;;;;;;;2.88;84.65;95907.47;2072280;28;20733;-65
2022/02/16 04:12:09;;;;;;;0.60;0.50;;;;;;;3.06;84.69;95935.03;2071457;28;20556;-65
2022/02/16 04:13:12;;;;;;;0.70;0.60;;;;;;;2.97;84.47;95915.59;2071228;28;20652;-65
2022/02/16 04:14:13;;;;;;;2.83;0.50;;;;;;;3.14;84.46;95929.47;2070865;28;20229;-65
2022/02/16 04:15:15;;;;;;;2.00;0.47;;;;;;;3.10;84.37;95948.66;2071412;28;20198;-65
2022/02/16 04:16:17;;;;;;;1.95;0.50;;;;;;;3.09;84.52;95919.34;2071183;28;20198;-65
2022/02/16 04:17:18;;;;;;;1.15;0.50;;;;;;;3.14;84.65;95926.88;2072260;28;20555;-65
2022/02/16 04:18:20;;;;;;;8.77;0.60;;;;;;;3.13;84.61;95930.38;2071165;28;20676;-65
2022/02/16 04:19:22;;;;;;;1.33;0.60;;;;;;;3.16;84.21;95925.06;2070474;28;20215;-65
2022/02/16 04:20:23;;;;;;;1.60;1.02;;;;;;;3.20;84.29;95929.16;2070897;28;20553;-65
2022/02/16 04:21:25;;;;;;;0.60;0.50;;;;;;;3.14;84.23;95924.31;2071257;28;20233;-65
2022/02/16 04:22:27;;;;;;;0.60;0.50;;;;;;;2.95;84.59;95904.50;2072160;28;20263;-65
2022/02/16 04:23:28;;;;;;;2.58;0.60;;;;;;;3.17;84.47;95927.56;2072353;28;20205;-65
2022/02/16 04:24:30;;;;;;;1.77;0.50;;;;;;;3.12;84.45;95920.94;2071653;28;20696;-66
2022/02/16 04:25:31;;;;;;;2.10;0.70;;;;;;;3.15;84.59;95931.97;2071416;28;20203;-65
2022/02/16 04:26:33;;;;;;;1.75;0.50;;;;;;;3.15;84.66;95937.13;2070794;28;20193;-66
2022/02/16 04:27:35;;;;;;;0.60;0.50;;;;;;;3.07;84.55;95915.16;2070782;28;20213;-65
2022/02/16 04:28:36;;;;;;;1.23;0.50;;;;;;;3.16;84.29;95930.22;2071830;28;20201;-65
2022/02/16 04:29:38;;;;;;;1.13;0.60;;;;;;;3.13;84.75;95930.38;2071628;28;20751;-65
2022/02/16 04:30:40;;;;;;;3.45;0.70;;;;;;;3.06;84.78;95924.69;2072450;28;20194;-65
2022/02/16 04:31:43;;;;;;;0.70;0.45;;;;;;;3.14;84.88;95935.47;2072184;28;20297;-65
2022/02/16 04:32:45;;;;;;;1.38;0.57;;;;;;;3.17;84.82;95937.94;2070087;28;20212;-65
2022/02/16 04:33:46;;;;;;;1.00;0.50;;;;;;;3.29;84.21;95941.66;2070778;28;20667;-66
2022/02/16 04:34:48;;;;;;;0.88;0.60;;;;;;;3.21;84.55;95935.16;2071634;28;20225;-66
2022/02/16 04:35:49;;;;;;;0.60;0.40;;;;;;;3.12;84.97;95942.47;2072230;28;20841;-65
2022/02/16 04:36:51;;;;;;;1.10;0.68;;;;;;;3.14;84.84;95935.47;2071973;28;20443;-65
2022/02/16 04:37:52;;;;;;;0.93;0.40;;;;;;;3.17;84.84;95927.56;2072052;28;20198;-65
2022/02/16 04:38:58;;;;;;;1.00;0.70;;;;;;;3.23;84.74;95928.16;2071014;28;20201;-66
2022/02/16 04:39:59;;;;;;;1.27;0.60;;;;;;;3.22;84.65;95927.34;2072031;28;20198;-65
2022/02/16 04:41:02;;;;;;;1.55;0.70;;;;;;;3.13;85.04;95920.03;2071508;28;20695;-65
2022/02/16 04:42:03;;;;;;;0.80;0.60;;;;;;;3.19;84.99;95929.22;2071568;28;20205;-65
2022/02/16 04:43:05;;;;;;;1.50;0.60;;;;;;;3.17;84.78;95919.81;2071559;28;20209;-65
2022/02/16 04:44:07;;;;;;;0.80;0.60;;;;;;;3.18;84.90;95925.81;2071091;28;20806;-65
2022/02/16 04:45:09;;;;;;;0.60;0.50;;;;;;;3.20;84.79;95923.16;2072104;28;20224;-66
2022/02/16 04:46:11;;;;;;;2.38;0.65;;;;;;;3.17;85.01;95929.31;2071721;28;20201;-66
2022/02/16 04:47:12;;;;;;;0.82;0.60;;;;;;;3.17;85.08;95929.31;2070270;28;20411;-66
2022/02/16 04:48:15;;;;;;;1.80;0.60;;;;;;;3.16;85.16;95927.66;2070476;28;20645;-66
2022/02/16 04:49:16;;;;;;;0.70;0.50;;;;;;;3.04;85.02;95898.06;2071412;28;20221;-66
2022/02/16 04:50:18;;;;;;;1.38;0.60;;;;;;;3.22;85.18;95924.75;2072106;28;20580;-66
2022/02/16 04:51:19;;;;;;;1.48;0.60;;;;;;;3.19;85.25;95932.66;2072069;28;20208;-66
2022/02/16 04:52:21;;;;;;;0.90;0.60;;;;;;;3.20;85.28;95916.22;2071030;28;20200;-66
2022/02/16 04:53:23;;;;;;;0.70;0.50;;;;;;;3.17;85.35;95926.72;2072020;28;20209;-66
2022/02/16 04:54:24;;;;;;;1.05;0.50;;;;;;;3.19;85.33;95913.72;2070003;28;20717;-66